Glendon, North Carolina
Current Conditions -  °F | °C
As of 9:15 AM on Thursday 30 Oct 2014 (Local Time) from K5W8 Reporting Station
Clear Clear  
Wind Chill: 52°   Ceiling: Unl
Heat Index: 52°   Visibility: 10mi
Dew Point: 45°   Wind: 3mph
Humidity: 76%   Direction: 360°N
Pressure: 30.07"   Gusts: NA
Location:  35.4616°N, 79.5721°W
Report Text: K5W8 301315Z AUTO 36003KT 10SM CLR 11/07 A3007 RMK AO2 T01120071
Loading
Personal Weather Stations






























Interactive Weather Map New forecast layout! Learn more

10-Day Weather Forecast

Advertisements
Track Severe Weather on mobile